sensor_id;sensor_type;location;lat;lon;timestamp;pressure;altitude;pressure_sealevel;temperature;humidity
71857;BME280;63344;46.980;28.882;2023-04-01T00:01:59;99800.47;;;4.30;94.25
71857;BME280;63344;46.980;28.882;2023-04-01T00:04:26;99798.69;;;4.31;94.33
71857;BME280;63344;46.980;28.882;2023-04-01T00:06:54;99798.72;;;4.29;94.12
71857;BME280;63344;46.980;28.882;2023-04-01T00:09:22;99800.63;;;4.24;94.07
71857;BME280;63344;46.980;28.882;2023-04-01T00:11:50;99799.97;;;4.16;93.63
71857;BME280;63344;46.980;28.882;2023-04-01T00:14:17;99800.19;;;4.07;92.92
71857;BME280;63344;46.980;28.882;2023-04-01T00:16:44;99791.66;;;3.98;92.42
71857;BME280;63344;46.980;28.882;2023-04-01T00:19:13;99790.88;;;3.93;92.27
71857;BME280;63344;46.980;28.882;2023-04-01T00:21:40;99791.00;;;3.89;92.27
71857;BME280;63344;46.980;28.882;2023-04-01T00:24:08;99796.38;;;3.84;91.99
71857;BME280;63344;46.980;28.882;2023-04-01T00:26:35;99790.34;;;3.81;92.20
71857;BME280;63344;46.980;28.882;2023-04-01T00:29:02;99791.28;;;3.78;92.20
71857;BME280;63344;46.980;28.882;2023-04-01T00:31:29;99793.00;;;3.79;92.46
71857;BME280;63344;46.980;28.882;2023-04-01T00:33:57;99797.38;;;3.80;92.49
71857;BME280;63344;46.980;28.882;2023-04-01T00:36:24;99800.66;;;3.88;93.46
71857;BME280;63344;46.980;28.882;2023-04-01T00:38:52;99797.94;;;3.91;93.90
71857;BME280;63344;46.980;28.882;2023-04-01T00:41:19;99797.13;;;3.89;94.04
71857;BME280;63344;46.980;28.882;2023-04-01T00:44:11;99801.63;;;3.84;94.00
71857;BME280;63344;46.980;28.882;2023-04-01T00:46:39;99802.44;;;3.88;93.95
71857;BME280;63344;46.980;28.882;2023-04-01T00:49:08;99798.03;;;3.88;93.66
71857;BME280;63344;46.980;28.882;2023-04-01T00:51:36;99792.81;;;3.87;93.48
71857;BME280;63344;46.980;28.882;2023-04-01T00:54:06;99792.09;;;3.82;92.93
71857;BME280;63344;46.980;28.882;2023-04-01T00:56:37;99786.91;;;3.77;92.10
71857;BME280;63344;46.980;28.882;2023-04-01T00:59:14;99776.56;;;3.71;92.11
71857;BME280;63344;46.980;28.882;2023-04-01T01:01:42;99774.06;;;3.66;92.16
71857;BME280;63344;46.980;28.882;2023-04-01T01:04:39;99776.88;;;3.58;92.11
71857;BME280;63344;46.980;28.882;2023-04-01T01:07:11;99774.38;;;3.54;92.44
71857;BME280;63344;46.980;28.882;2023-04-01T01:10:04;99773.47;;;3.53;92.66
71857;BME280;63344;46.980;28.882;2023-04-01T01:15:44;99761.88;;;3.64;93.03
71857;BME280;63344;46.980;28.882;2023-04-01T01:18:20;99759.97;;;3.70;93.67
71857;BME280;63344;46.980;28.882;2023-04-01T01:37:11;99740.25;;;3.54;95.46
71857;BME280;63344;46.980;28.882;2023-04-01T01:39:39;99736.81;;;3.50;95.62
71857;BME280;63344;46.980;28.882;2023-04-01T01:42:11;99733.44;;;3.45;95.49
71857;BME280;63344;46.980;28.882;2023-04-01T01:44:41;99737.97;;;3.38;95.44
71857;BME280;63344;46.980;28.882;2023-04-01T01:47:11;99740.72;;;3.34;95.57
71857;BME280;63344;46.980;28.882;2023-04-01T01:49:41;99734.69;;;3.29;95.60
71857;BME280;63344;46.980;28.882;2023-04-01T01:52:11;99729.56;;;3.24;96.22
71857;BME280;63344;46.980;28.882;2023-04-01T01:54:52;99723.47;;;3.24;95.92
71857;BME280;63344;46.980;28.882;2023-04-01T01:57:25;99726.13;;;3.22;95.87
71857;BME280;63344;46.980;28.882;2023-04-01T01:59:56;99723.56;;;3.19;95.90
71857;BME280;63344;46.980;28.882;2023-04-01T02:02:25;99725.47;;;3.12;95.85
71857;BME280;63344;46.980;28.882;2023-04-01T02:04:53;99723.72;;;3.11;95.96
71857;BME280;63344;46.980;28.882;2023-04-01T02:07:25;99732.47;;;3.12;95.88
71857;BME280;63344;46.980;28.882;2023-04-01T02:09:54;99722.84;;;3.12;96.08
71857;BME280;63344;46.980;28.882;2023-04-01T02:12:24;99720.22;;;3.12;96.29
71857;BME280;63344;46.980;28.882;2023-04-01T02:14:56;99720.28;;;3.09;95.92
71857;BME280;63344;46.980;28.882;2023-04-01T02:17:27;99716.91;;;3.04;96.05
71857;BME280;63344;46.980;28.882;2023-04-01T02:19:58;99719.59;;;3.01;96.08
71857;BME280;63344;46.980;28.882;2023-04-01T02:22:36;99718.84;;;2.96;95.39
71857;BME280;63344;46.980;28.882;2023-04-01T02:25:27;99710.31;;;2.86;95.46
71857;BME280;63344;46.980;28.882;2023-04-01T02:27:57;99713.06;;;2.82;95.22
71857;BME280;63344;46.980;28.882;2023-04-01T02:30:27;99703.56;;;2.76;95.48
71857;BME280;63344;46.980;28.882;2023-04-01T02:32:56;99694.03;;;2.72;95.14
71857;BME280;63344;46.980;28.882;2023-04-01T02:35:24;99693.22;;;2.68;95.35
71857;BME280;63344;46.980;28.882;2023-04-01T02:37:55;99697.56;;;2.69;95.55
71857;BME280;63344;46.980;28.882;2023-04-01T02:40:22;99694.09;;;2.69;95.56
71857;BME280;63344;46.980;28.882;2023-04-01T02:42:50;99694.94;;;2.69;95.59
71857;BME280;63344;46.980;28.882;2023-04-01T02:45:17;99690.59;;;2.70;95.90
71857;BME280;63344;46.980;28.882;2023-04-01T02:47:44;99684.41;;;2.72;96.08
71857;BME280;63344;46.980;28.882;2023-04-01T02:50:12;99680.72;;;2.79;96.34
71857;BME280;63344;46.980;28.882;2023-04-01T02:52:39;99690.28;;;2.84;96.59
71857;BME280;63344;46.980;28.882;2023-04-01T02:55:06;99676.22;;;2.86;96.27
71857;BME280;63344;46.980;28.882;2023-04-01T02:57:35;99677.16;;;2.84;96.57
71857;BME280;63344;46.980;28.882;2023-04-01T03:00:03;99677.09;;;2.85;96.51
71857;BME280;63344;46.980;28.882;2023-04-01T03:02:30;99678.91;;;2.83;96.39
71857;BME280;63344;46.980;28.882;2023-04-01T03:04:57;99671.97;;;2.81;96.50
71857;BME280;63344;46.980;28.882;2023-04-01T03:07:25;99676.41;;;2.77;96.38
71857;BME280;63344;46.980;28.882;2023-04-01T03:09:52;99686.06;;;2.76;96.25
71857;BME280;63344;46.980;28.882;2023-04-01T03:12:19;99680.81;;;2.76;96.39
71857;BME280;63344;46.980;28.882;2023-04-01T03:14:46;99687.75;;;2.77;96.48
71857;BME280;63344;46.980;28.882;2023-04-01T03:17:13;99686.03;;;2.78;96.74
71857;BME280;63344;46.980;28.882;2023-04-01T03:19:41;99685.09;;;2.81;96.59
71857;BME280;63344;46.980;28.882;2023-04-01T03:22:10;99689.44;;;2.82;96.79
71857;BME280;63344;46.980;28.882;2023-04-01T03:24:38;99699.97;;;2.80;96.85
71857;BME280;63344;46.980;28.882;2023-04-01T03:27:05;99693.84;;;2.79;96.66
71857;BME280;63344;46.980;28.882;2023-04-01T03:29:32;99685.97;;;2.79;96.95
71857;BME280;63344;46.980;28.882;2023-04-01T03:31:59;99692.19;;;2.75;96.69
71857;BME280;63344;46.980;28.882;2023-04-01T03:34:27;99695.75;;;2.73;96.85
71857;BME280;63344;46.980;28.882;2023-04-01T03:36:54;99684.44;;;2.71;96.95
71857;BME280;63344;46.980;28.882;2023-04-01T03:39:21;99684.44;;;2.69;96.85
71857;BME280;63344;46.980;28.882;2023-04-01T03:41:49;99684.44;;;2.71;96.67
71857;BME280;63344;46.980;28.882;2023-04-01T03:44:16;99686.22;;;2.69;96.55
71857;BME280;63344;46.980;28.882;2023-04-01T03:46:46;99677.53;;;2.67;96.41
71857;BME280;63344;46.980;28.882;2023-04-01T03:49:13;99685.28;;;2.71;96.49
71857;BME280;63344;46.980;28.882;2023-04-01T03:51:43;99680.94;;;2.70;96.35
71857;BME280;63344;46.980;28.882;2023-04-01T03:54:10;99678.22;;;2.75;96.33
71857;BME280;63344;46.980;28.882;2023-04-01T03:56:38;99686.91;;;2.77;96.35
71857;BME280;63344;46.980;28.882;2023-04-01T03:59:08;99686.09;;;2.75;96.53
71857;BME280;63344;46.980;28.882;2023-04-01T04:01:38;99684.28;;;2.77;96.33
71857;BME280;63344;46.980;28.882;2023-04-01T04:04:05;99679.84;;;2.81;96.29
71857;BME280;63344;46.980;28.882;2023-04-01T04:06:36;99679.78;;;2.84;96.29
71857;BME280;63344;46.980;28.882;2023-04-01T04:09:03;99673.63;;;2.85;96.15
71857;BME280;63344;46.980;28.882;2023-04-01T04:11:34;99681.34;;;2.91;95.93
71857;BME280;63344;46.980;28.882;2023-04-01T04:14:02;99673.59;;;2.88;95.85
71857;BME280;63344;46.980;28.882;2023-04-01T04:16:29;99677.84;;;2.92;96.21
71857;BME280;63344;46.980;28.882;2023-04-01T04:18:57;99681.19;;;2.98;96.33
71857;BME280;63344;46.980;28.882;2023-04-01T04:21:26;99675.88;;;3.02;96.00
71857;BME280;63344;46.980;28.882;2023-04-01T04:23:54;99681.84;;;3.08;95.81
71857;BME280;63344;46.980;28.882;2023-04-01T04:26:22;99677.38;;;3.12;95.87
71857;BME280;63344;46.980;28.882;2023-04-01T04:28:49;99669.47;;;3.13;95.54
71857;BME280;63344;46.980;28.882;2023-04-01T04:31:24;99669.41;;;3.16;95.61
71857;BME280;63344;46.980;28.882;2023-04-01T04:33:51;99672.81;;;3.20;95.76
71857;BME280;63344;46.980;28.882;2023-04-01T04:36:20;99667.38;;;3.28;95.90
71857;BME280;63344;46.980;28.882;2023-04-01T04:38:48;99662.06;;;3.31;96.37
71857;BME280;63344;46.980;28.882;2023-04-01T04:41:18;99660.19;;;3.36;96.25
71857;BME280;63344;46.980;28.882;2023-04-01T04:43:54;99662.69;;;3.41;96.41
71857;BME280;63344;46.980;28.882;2023-04-01T04:46:23;99654.69;;;3.45;96.43
71857;BME280;63344;46.980;28.882;2023-04-01T04:48:50;99648.38;;;3.52;96.53
71857;BME280;63344;46.980;28.882;2023-04-01T04:51:20;99660.41;;;3.61;96.64
71857;BME280;63344;46.980;28.882;2023-04-01T04:53:48;99661.13;;;3.68;96.85
71857;BME280;63344;46.980;28.882;2023-04-01T04:56:22;99668.75;;;3.77;96.77
71857;BME280;63344;46.980;28.882;2023-04-01T04:58:49;99659.81;;;3.84;96.82
71857;BME280;63344;46.980;28.882;2023-04-01T05:01:17;99660.47;;;3.92;96.67
71857;BME280;63344;46.980;28.882;2023-04-01T05:03:46;99668.00;;;4.05;96.61
71857;BME280;63344;46.980;28.882;2023-04-01T05:06:16;99669.53;;;4.13;97.13
71857;BME280;63344;46.980;28.882;2023-04-01T05:08:44;99670.84;;;4.28;96.90
71857;BME280;63344;46.980;28.882;2023-04-01T05:11:14;99669.66;;;4.40;96.73
71857;BME280;63344;46.980;28.882;2023-04-01T05:13:42;99662.16;;;4.56;96.93
71857;BME280;63344;46.980;28.882;2023-04-01T05:16:16;99661.72;;;4.71;96.64
71857;BME280;63344;46.980;28.882;2023-04-01T05:18:43;99662.16;;;4.86;96.05
71857;BME280;63344;46.980;28.882;2023-04-01T05:21:12;99656.50;;;4.98;95.61
71857;BME280;63344;46.980;28.882;2023-04-01T05:23:40;99655.22;;;5.11;95.32
71857;BME280;63344;46.980;28.882;2023-04-01T05:26:12;99654.69;;;5.27;95.76
71857;BME280;63344;46.980;28.882;2023-04-01T05:28:40;99641.03;;;5.42;95.43
71857;BME280;63344;46.980;28.882;2023-04-01T05:31:08;99655.50;;;5.55;95.32
71857;BME280;63344;46.980;28.882;2023-04-01T05:33:36;99656.91;;;5.66;95.07
71857;BME280;63344;46.980;28.882;2023-04-01T05:36:11;99659.97;;;5.78;94.73
71857;BME280;63344;46.980;28.882;2023-04-01T05:38:40;99661.31;;;5.90;94.14
71857;BME280;63344;46.980;28.882;2023-04-01T05:41:07;99664.34;;;6.05;94.05
71857;BME280;63344;46.980;28.882;2023-04-01T05:43:39;99664.03;;;6.14;92.88
71857;BME280;63344;46.980;28.882;2023-04-01T05:46:07;99660.06;;;6.27;92.61
71857;BME280;63344;46.980;28.882;2023-04-01T05:48:34;99662.28;;;6.38;92.08
71857;BME280;63344;46.980;28.882;2023-04-01T05:51:03;99647.81;;;6.48;91.34
71857;BME280;63344;46.980;28.882;2023-04-01T05:53:32;99658.03;;;6.57;91.21
71857;BME280;63344;46.980;28.882;2023-04-01T05:56:03;99664.72;;;6.66;91.26
71857;BME280;63344;46.980;28.882;2023-04-01T05:58:31;99661.69;;;6.77;91.00
71857;BME280;63344;46.980;28.882;2023-04-01T06:01:07;99670.09;;;6.87;90.48
71857;BME280;63344;46.980;28.882;2023-04-01T06:03:41;99666.34;;;6.92;89.71
71857;BME280;63344;46.980;28.882;2023-04-01T06:06:16;99671.47;;;6.97;89.40
71857;BME280;63344;46.980;28.882;2023-04-01T06:08:46;99667.06;;;6.97;89.40
71857;BME280;63344;46.980;28.882;2023-04-01T06:11:24;99661.72;;;6.99;89.19
71857;BME280;63344;46.980;28.882;2023-04-01T06:14:06;99661.38;;;7.07;88.99
71857;BME280;63344;46.980;28.882;2023-04-01T06:19:39;99663.38;;;7.24;88.58
71857;BME280;63344;46.980;28.882;2023-04-01T06:22:46;99670.03;;;7.32;88.02
71857;BME280;63344;46.980;28.882;2023-04-01T06:40:18;99657.09;;;7.89;87.18
71857;BME280;63344;46.980;28.882;2023-04-01T06:46:05;99658.81;;;8.11;87.01
71857;BME280;63344;46.980;28.882;2023-04-01T06:51:58;99658.31;;;8.42;87.21
71857;BME280;63344;46.980;28.882;2023-04-01T06:54:45;99651.97;;;8.65;86.92
71857;BME280;63344;46.980;28.882;2023-04-01T06:57:32;99640.56;;;8.82;86.31
71857;BME280;63344;46.980;28.882;2023-04-01T07:00:53;99644.06;;;9.02;85.62
71857;BME280;63344;46.980;28.882;2023-04-01T07:03:41;99641.38;;;9.21;84.82
71857;BME280;63344;46.980;28.882;2023-04-01T07:08:59;99643.09;;;9.56;83.83
71857;BME280;63344;46.980;28.882;2023-04-01T07:11:33;99631.72;;;9.72;83.06
71857;BME280;63344;46.980;28.882;2023-04-01T07:14:21;99628.28;;;9.87;81.77
71857;BME280;63344;46.980;28.882;2023-04-01T07:22:33;99624.78;;;10.20;79.73
71857;BME280;63344;46.980;28.882;2023-04-01T07:27:45;99621.63;;;10.47;79.99
71857;BME280;63344;46.980;28.882;2023-04-01T07:30:18;99620.88;;;10.61;79.74
71857;BME280;63344;46.980;28.882;2023-04-01T07:32:51;99614.53;;;10.79;79.92
71857;BME280;63344;46.980;28.882;2023-04-01T07:35:38;99607.91;;;11.02;79.40
71857;BME280;63344;46.980;28.882;2023-04-01T07:41:09;99584.16;;;11.45;77.43
71857;BME280;63344;46.980;28.882;2023-04-01T08:05:59;99571.06;;;13.66;69.15
71857;BME280;63344;46.980;28.882;2023-04-01T08:12:03;99567.78;;;13.75;67.07
71857;BME280;63344;46.980;28.882;2023-04-01T08:14:22;99560.38;;;13.66;67.15
71857;BME280;63344;46.980;28.882;2023-04-01T08:22:27;99552.53;;;13.90;66.47
71857;BME280;63344;46.980;28.882;2023-04-01T08:25:00;99553.44;;;14.02;66.67
71857;BME280;63344;46.980;28.882;2023-04-01T08:27:53;99554.59;;;14.23;65.81
71857;BME280;63344;46.980;28.882;2023-04-01T08:30:59;99544.38;;;14.67;64.95
71857;BME280;63344;46.980;28.882;2023-04-01T08:33:29;99539.09;;;15.38;64.23
71857;BME280;63344;46.980;28.882;2023-04-01T08:36:10;99550.56;;;15.86;61.33
71857;BME280;63344;46.980;28.882;2023-04-01T08:38:55;99547.44;;;16.04;60.54
71857;BME280;63344;46.980;28.882;2023-04-01T09:05:31;99522.44;;;18.18;51.50
71857;BME280;63344;46.980;28.882;2023-04-01T09:16:28;99509.19;;;16.02;57.95
71857;BME280;63344;46.980;28.882;2023-04-01T09:27:56;99487.63;;;15.81;59.37
71857;BME280;63344;46.980;28.882;2023-04-01T09:35:48;99486.75;;;15.58;60.19
71857;BME280;63344;46.980;28.882;2023-04-01T09:44:32;99476.13;;;15.67;59.37
71857;BME280;63344;46.980;28.882;2023-04-01T09:52:36;99467.41;;;15.99;59.04
71857;BME280;63344;46.980;28.882;2023-04-01T10:20:46;99450.81;;;15.26;60.73
71857;BME280;63344;46.980;28.882;2023-04-01T10:26:44;99446.34;;;15.03;61.88
71857;BME280;63344;46.980;28.882;2023-04-01T10:37:56;99441.69;;;14.93;62.53
71857;BME280;63344;46.980;28.882;2023-04-01T10:54:43;99431.91;;;15.05;62.87
71857;BME280;63344;46.980;28.882;2023-04-01T10:57:31;99423.88;;;15.05;63.32
71857;BME280;63344;46.980;28.882;2023-04-01T11:00:17;99417.56;;;15.06;63.16
71857;BME280;63344;46.980;28.882;2023-04-01T11:29:54;99400.34;;;15.22;61.12
71857;BME280;63344;46.980;28.882;2023-04-01T11:33:00;99392.53;;;15.19;60.81
71857;BME280;63344;46.980;28.882;2023-04-01T11:36:11;99389.38;;;15.13;60.71
71857;BME280;63344;46.980;28.882;2023-04-01T11:41:56;99389.63;;;15.10;60.25
71857;BME280;63344;46.980;28.882;2023-04-01T11:45:32;99385.97;;;15.11;60.66
71857;BME280;63344;46.980;28.882;2023-04-01T11:53:22;99372.72;;;15.21;60.21
71857;BME280;63344;46.980;28.882;2023-04-01T12:13:14;99355.94;;;15.08;60.71
71857;BME280;63344;46.980;28.882;2023-04-01T12:33:44;99379.00;;;14.98;62.74
71857;BME280;63344;46.980;28.882;2023-04-01T12:36:35;99381.09;;;14.94;63.57
71857;BME280;63344;46.980;28.882;2023-04-01T12:47:37;99363.31;;;14.93;62.77
71857;BME280;63344;46.980;28.882;2023-04-01T12:55:44;99357.25;;;14.91;63.38
71857;BME280;63344;46.980;28.882;2023-04-01T12:58:45;99360.75;;;14.91;63.99
71857;BME280;63344;46.980;28.882;2023-04-01T13:02:12;99358.44;;;14.87;63.49
71857;BME280;63344;46.980;28.882;2023-04-01T13:19:50;99329.66;;;14.20;66.71
71857;BME280;63344;46.980;28.882;2023-04-01T13:23:11;99347.66;;;14.05;67.78
71857;BME280;63344;46.980;28.882;2023-04-01T13:37:10;99340.78;;;13.89;68.86
71857;BME280;63344;46.980;28.882;2023-04-01T13:42:31;99332.50;;;13.81;69.17
71857;BME280;63344;46.980;28.882;2023-04-01T13:45:17;99333.78;;;13.75;69.20
71857;BME280;63344;46.980;28.882;2023-04-01T13:50:57;99334.69;;;13.63;69.68
71857;BME280;63344;46.980;28.882;2023-04-01T13:59:32;99345.28;;;13.39;71.55
71857;BME280;63344;46.980;28.882;2023-04-01T14:14:05;99343.50;;;12.88;75.14
71857;BME280;63344;46.980;28.882;2023-04-01T14:19:34;99344.72;;;12.70;77.32
71857;BME280;63344;46.980;28.882;2023-04-01T14:25:21;99349.41;;;12.53;79.50
71857;BME280;63344;46.980;28.882;2023-04-01T14:28:00;99345.56;;;12.45;79.50
71857;BME280;63344;46.980;28.882;2023-04-01T14:30:45;99349.47;;;12.39;79.94
71857;BME280;63344;46.980;28.882;2023-04-01T14:33:57;99350.75;;;12.33;80.40
71857;BME280;63344;46.980;28.882;2023-04-01T14:48:13;99356.13;;;12.19;81.71
71857;BME280;63344;46.980;28.882;2023-04-01T14:50:55;99354.63;;;12.15;81.64
71857;BME280;63344;46.980;28.882;2023-04-01T14:56:00;99349.50;;;12.12;82.25
71857;BME280;63344;46.980;28.882;2023-04-01T14:58:59;99347.97;;;12.08;82.75
71857;BME280;63344;46.980;28.882;2023-04-01T15:01:34;99344.69;;;12.04;82.77
71857;BME280;63344;46.980;28.882;2023-04-01T15:07:35;99346.03;;;11.97;83.21
71857;BME280;63344;46.980;28.882;2023-04-01T15:10:42;99342.72;;;11.93;82.72
71857;BME280;63344;46.980;28.882;2023-04-01T15:13:28;99340.16;;;11.92;83.20
71857;BME280;63344;46.980;28.882;2023-04-01T15:19:12;99344.06;;;11.86;82.73
71857;BME280;63344;46.980;28.882;2023-04-01T15:33:07;99336.47;;;11.66;83.06
71857;BME280;63344;46.980;28.882;2023-04-01T15:38:52;99346.66;;;11.59;84.03
71857;BME280;63344;46.980;28.882;2023-04-01T15:41:24;99346.75;;;11.57;84.40
71857;BME280;63344;46.980;28.882;2023-04-01T15:50:43;99347.72;;;11.42;85.30
71857;BME280;63344;46.980;28.882;2023-04-01T15:53:18;99350.75;;;11.36;85.89
71857;BME280;63344;46.980;28.882;2023-04-01T15:55:59;99344.16;;;11.29;85.93
71857;BME280;63344;46.980;28.882;2023-04-01T16:01:50;99340.16;;;11.22;86.78
71857;BME280;63344;46.980;28.882;2023-04-01T16:05:11;99351.91;;;11.18;86.77
71857;BME280;63344;46.980;28.882;2023-04-01T16:21:53;99358.75;;;10.93;87.15
71857;BME280;63344;46.980;28.882;2023-04-01T16:27:54;99356.63;;;10.84;87.24
71857;BME280;63344;46.980;28.882;2023-04-01T16:30:55;99355.03;;;10.81;87.42
71857;BME280;63344;46.980;28.882;2023-04-01T16:33:52;99357.00;;;10.77;87.84
71857;BME280;63344;46.980;28.882;2023-04-01T16:39:22;99359.19;;;10.71;88.14
71857;BME280;63344;46.980;28.882;2023-04-01T16:47:40;99366.47;;;10.67;88.99
71857;BME280;63344;46.980;28.882;2023-04-01T16:50:20;99364.88;;;10.65;88.98
71857;BME280;63344;46.980;28.882;2023-04-01T16:55:48;99377.63;;;10.58;89.58
71857;BME280;63344;46.980;28.882;2023-04-01T16:58:36;99368.25;;;10.52;89.96
71857;BME280;63344;46.980;28.882;2023-04-01T17:01:12;99362.50;;;10.44;90.23
71857;BME280;63344;46.980;28.882;2023-04-01T17:04:06;99374.16;;;10.42;90.54
71857;BME280;63344;46.980;28.882;2023-04-01T17:06:45;99383.25;;;10.38;90.67
71857;BME280;63344;46.980;28.882;2023-04-01T17:15:10;99384.22;;;10.36;91.44
71857;BME280;63344;46.980;28.882;2023-04-01T17:42:16;99394.66;;;10.08;94.61
71857;BME280;63344;46.980;28.882;2023-04-01T17:47:55;99394.06;;;10.03;94.96
71857;BME280;63344;46.980;28.882;2023-04-01T17:56:40;99387.53;;;9.92;95.82
71857;BME280;63344;46.980;28.882;2023-04-01T17:59:29;99381.59;;;9.89;96.01
71857;BME280;63344;46.980;28.882;2023-04-01T18:05:40;99386.19;;;9.85;96.24
71857;BME280;63344;46.980;28.882;2023-04-01T18:13:24;99383.69;;;9.82;96.21
71857;BME280;63344;46.980;28.882;2023-04-01T18:16:03;99387.31;;;9.81;96.34
71857;BME280;63344;46.980;28.882;2023-04-01T18:27:28;99361.28;;;9.72;96.63
71857;BME280;63344;46.980;28.882;2023-04-01T18:30:05;99377.13;;;9.73;96.96
71857;BME280;63344;46.980;28.882;2023-04-01T18:32:44;99380.63;;;9.74;96.69
71857;BME280;63344;46.980;28.882;2023-04-01T18:35:21;99378.16;;;9.71;97.05
71857;BME280;63344;46.980;28.882;2023-04-01T18:40:41;99384.31;;;9.71;97.39
71857;BME280;63344;46.980;28.882;2023-04-01T18:43:29;99390.53;;;9.70;97.83
71857;BME280;63344;46.980;28.882;2023-04-01T18:52:26;99383.03;;;9.63;97.02
71857;BME280;63344;46.980;28.882;2023-04-01T18:58:23;99375.22;;;9.60;97.50
71857;BME280;63344;46.980;28.882;2023-04-01T19:00:38;99371.97;;;9.54;97.73
71857;BME280;63344;46.980;28.882;2023-04-01T19:03:23;99380.88;;;9.53;97.84
71857;BME280;63344;46.980;28.882;2023-04-01T19:05:56;99388.97;;;9.50;98.05
71857;BME280;63344;46.980;28.882;2023-04-01T19:08:41;99388.91;;;9.52;98.00
71857;BME280;63344;46.980;28.882;2023-04-01T19:11:36;99391.75;;;9.49;97.72
71857;BME280;63344;46.980;28.882;2023-04-01T19:16:55;99390.34;;;9.42;98.26
71857;BME280;63344;46.980;28.882;2023-04-01T19:19:42;99394.63;;;9.44;98.47
71857;BME280;63344;46.980;28.882;2023-04-01T19:34:35;99397.53;;;9.40;98.70
71857;BME280;63344;46.980;28.882;2023-04-01T19:37:40;99387.69;;;9.42;98.70
71857;BME280;63344;46.980;28.882;2023-04-01T19:43:39;99386.84;;;9.41;98.27
71857;BME280;63344;46.980;28.882;2023-04-01T19:52:08;99374.53;;;9.40;98.60
71857;BME280;63344;46.980;28.882;2023-04-01T20:00:53;99380.59;;;9.42;98.29
71857;BME280;63344;46.980;28.882;2023-04-01T20:16:59;99381.53;;;9.41;97.88
71857;BME280;63344;46.980;28.882;2023-04-01T20:19:35;99380.78;;;9.39;97.93
71857;BME280;63344;46.980;28.882;2023-04-01T20:22:15;99383.25;;;9.42;97.74
71857;BME280;63344;46.980;28.882;2023-04-01T20:24:46;99387.63;;;9.43;97.69
71857;BME280;63344;46.980;28.882;2023-04-01T20:30:00;99394.28;;;9.50;97.91
71857;BME280;63344;46.980;28.882;2023-04-01T20:32:50;99393.16;;;9.54;97.33
71857;BME280;63344;46.980;28.882;2023-04-01T20:36:09;99394.13;;;9.53;97.32
71857;BME280;63344;46.980;28.882;2023-04-01T20:41:27;99382.06;;;9.48;96.92
71857;BME280;63344;46.980;28.882;2023-04-01T20:51:25;99371.34;;;9.33;97.49
71857;BME280;63344;46.980;28.882;2023-04-01T20:54:20;99368.72;;;9.33;97.92
71857;BME280;63344;46.980;28.882;2023-04-01T21:08:53;99364.00;;;9.23;99.00
71857;BME280;63344;46.980;28.882;2023-04-01T21:14:14;99357.13;;;9.18;99.23
71857;BME280;63344;46.980;28.882;2023-04-01T21:45:49;99330.38;;;9.07;100.00
71857;BME280;63344;46.980;28.882;2023-04-01T21:48:51;99331.22;;;9.08;100.00
71857;BME280;63344;46.980;28.882;2023-04-01T21:54:25;99333.78;;;9.09;100.00
71857;BME280;63344;46.980;28.882;2023-04-01T22:02:47;99326.53;;;9.13;100.00
71857;BME280;63344;46.980;28.882;2023-04-01T22:07:59;99333.63;;;9.12;100.00
71857;BME280;63344;46.980;28.882;2023-04-01T22:10:32;99333.63;;;9.12;100.00
71857;BME280;63344;46.980;28.882;2023-04-01T22:13:22;99325.78;;;9.11;100.00
71857;BME280;63344;46.980;28.882;2023-04-01T22:16:15;99337.22;;;9.11;100.00
71857;BME280;63344;46.980;28.882;2023-04-01T22:22:10;99325.59;;;9.14;100.00
71857;BME280;63344;46.980;28.882;2023-04-01T22:30:17;99331.25;;;9.24;100.00
71857;BME280;63344;46.980;28.882;2023-04-01T22:32:50;99325.88;;;9.25;100.00
71857;BME280;63344;46.980;28.882;2023-04-01T22:43:41;99339.81;;;9.29;99.00
71857;BME280;63344;46.980;28.882;2023-04-01T22:49:04;99327.41;;;9.29;98.81
71857;BME280;63344;46.980;28.882;2023-04-01T22:51:42;99323.94;;;9.29;98.64
71857;BME280;63344;46.980;28.882;2023-04-01T22:54:25;99320.41;;;9.28;98.53
71857;BME280;63344;46.980;28.882;2023-04-01T22:56:57;99321.34;;;9.27;98.33
71857;BME280;63344;46.980;28.882;2023-04-01T23:00:20;99316.91;;;9.28;98.32
71857;BME280;63344;46.980;28.882;2023-04-01T23:02:43;99311.59;;;9.28;98.59
71857;BME280;63344;46.980;28.882;2023-04-01T23:05:17;99311.59;;;9.28;98.78
71857;BME280;63344;46.980;28.882;2023-04-01T23:10:49;99309.03;;;9.26;98.69
71857;BME280;63344;46.980;28.882;2023-04-01T23:13:45;99313.47;;;9.26;98.61
71857;BME280;63344;46.980;28.882;2023-04-01T23:16:16;99314.50;;;9.23;98.65
71857;BME280;63344;46.980;28.882;2023-04-01T23:18:55;99312.78;;;9.22;98.95
71857;BME280;63344;46.980;28.882;2023-04-01T23:21:49;99311.09;;;9.21;99.21
71857;BME280;63344;46.980;28.882;2023-04-01T23:24:42;99313.88;;;9.18;98.91
71857;BME280;63344;46.980;28.882;2023-04-01T23:27:17;99310.41;;;9.17;99.18
71857;BME280;63344;46.980;28.882;2023-04-01T23:29:46;99306.03;;;9.16;99.35
71857;BME280;63344;46.980;28.882;2023-04-01T23:32:18;99304.31;;;9.15;99.33
71857;BME280;63344;46.980;28.882;2023-04-01T23:34:48;99305.19;;;9.16;99.28
71857;BME280;63344;46.980;28.882;2023-04-01T23:37:17;99303.56;;;9.13;99.11
71857;BME280;63344;46.980;28.882;2023-04-01T23:39:51;99300.97;;;9.12;99.22
71857;BME280;63344;46.980;28.882;2023-04-01T23:42:40;99297.41;;;9.13;99.23
71857;BME280;63344;46.980;28.882;2023-04-01T23:45:16;99298.34;;;9.12;99.33
71857;BME280;63344;46.980;28.882;2023-04-01T23:47:46;99298.41;;;9.10;99.06
71857;BME280;63344;46.980;28.882;2023-04-01T23:50:16;99283.56;;;9.08;98.74
71857;BME280;63344;46.980;28.882;2023-04-01T23:53:02;99298.59;;;9.07;98.98
71857;BME280;63344;46.980;28.882;2023-04-01T23:55:33;99292.44;;;9.07;99.35
